AAY21 KSMX-KLAS
Flight info
| Callsign | AAY21 |
|---|---|
| Flight time | 1h 1m |
| Altitude | 27000 |
| Route | BUELT4 RZS PMD HELDE DAG MISEN RNDRZ4 |
| Aircraft | A319/M-SDFGIRWYZ/SB1 |
Departure
| Time | 2026-05-07 01:57 |
|---|---|
| Airport | Santa Maria Public Airport Captain G Allan Hancock Field (KSMX) |
Arrival
| Time | 2026-05-07 02:58 |
|---|---|
| Airport | Harry Reid International Airport (KLAS) |
| Time | Latitude | Longitude | Altitude | Speed | Heading |
|---|---|---|---|---|---|
| 2026-05-07 01:30 | 34.89901 | -120.44867 | 251 ft | 0 kts | 40° |
| 2026-05-07 01:52 | 34.89903 | -120.44865 | 251 ft | 1 kts | 35° |
| 2026-05-07 01:52 | 34.89909 | -120.44872 | 251 ft | 1 kts | 312° |
| 2026-05-07 01:53 | 34.89904 | -120.44891 | 251 ft | 4 kts | 253° |
| 2026-05-07 01:53 | 34.89893 | -120.44936 | 251 ft | 7 kts | 252° |
| 2026-05-07 01:53 | 34.89871 | -120.44995 | 251 ft | 8 kts | 232° |
| 2026-05-07 01:53 | 34.89829 | -120.44994 | 252 ft | 7 kts | 145° |
| 2026-05-07 01:54 | 34.89790 | -120.44950 | 253 ft | 8 kts | 135° |
| 2026-05-07 01:54 | 34.89753 | -120.44906 | 255 ft | 8 kts | 135° |
| 2026-05-07 01:54 | 34.89713 | -120.44858 | 258 ft | 9 kts | 136° |
| 2026-05-07 01:54 | 34.89666 | -120.44802 | 260 ft | 10 kts | 135° |
| 2026-05-07 01:55 | 34.89609 | -120.44734 | 263 ft | 12 kts | 135° |
| 2026-05-07 01:55 | 34.89553 | -120.44667 | 266 ft | 10 kts | 135° |
| 2026-05-07 01:55 | 34.89513 | -120.44619 | 269 ft | 6 kts | 135° |
| 2026-05-07 01:55 | 34.89483 | -120.44583 | 271 ft | 7 kts | 134° |
| 2026-05-07 01:56 | 34.89442 | -120.44535 | 272 ft | 8 kts | 144° |
| 2026-05-07 01:56 | 34.89384 | -120.44527 | 275 ft | 9 kts | 181° |
| 2026-05-07 01:56 | 34.89320 | -120.44532 | 274 ft | 10 kts | 195° |
| 2026-05-07 01:56 | 34.89291 | -120.44601 | 272 ft | 12 kts | 298° |
| 2026-05-07 01:57 | 34.89373 | -120.44703 | 270 ft | 37 kts | 315° |
| 2026-05-07 01:57 | 34.89766 | -120.45172 | 250 ft | 117 kts | 315° |
| 2026-05-07 01:57 | 34.90460 | -120.45996 | 515 ft | 147 kts | 313° |
| 2026-05-07 01:57 | 34.91245 | -120.46804 | 1195 ft | 153 kts | 328° |
| 2026-05-07 01:58 | 34.92313 | -120.47074 | 1846 ft | 165 kts | 359° |
| 2026-05-07 01:58 | 34.93446 | -120.46559 | 2357 ft | 190 kts | 33° |
| 2026-05-07 01:58 | 34.94248 | -120.45133 | 2605 ft | 227 kts | 74° |
| 2026-05-07 01:58 | 34.94082 | -120.43127 | 3023 ft | 255 kts | 116° |
| 2026-05-07 01:59 | 34.92830 | -120.41530 | 3640 ft | 270 kts | 154° |
| 2026-05-07 01:59 | 34.90988 | -120.41127 | 4514 ft | 276 kts | 189° |
| 2026-05-07 01:59 | 34.89157 | -120.41874 | 5423 ft | 279 kts | 207° |
| 2026-05-07 01:59 | 34.87461 | -120.43025 | 6461 ft | 281 kts | 211° |
| 2026-05-07 02:00 | 34.85770 | -120.44267 | 7369 ft | 286 kts | 210° |
| 2026-05-07 02:00 | 34.83872 | -120.45028 | 8173 ft | 294 kts | 181° |
| 2026-05-07 02:00 | 34.81884 | -120.44497 | 8977 ft | 297 kts | 152° |
| 2026-05-07 02:00 | 34.80187 | -120.43121 | 9821 ft | 298 kts | 139° |
| 2026-05-07 02:01 | 34.78607 | -120.41383 | 10448 ft | 311 kts | 134° |
| 2026-05-07 02:01 | 34.76997 | -120.39485 | 10776 ft | 332 kts | 133° |
| 2026-05-07 02:01 | 34.75311 | -120.37555 | 11426 ft | 341 kts | 135° |
| 2026-05-07 02:01 | 34.73519 | -120.35633 | 12219 ft | 346 kts | 137° |
| 2026-05-07 02:02 | 34.71654 | -120.33754 | 13018 ft | 350 kts | 138° |
| 2026-05-07 02:02 | 34.69731 | -120.31899 | 13803 ft | 355 kts | 139° |
| 2026-05-07 02:02 | 34.67782 | -120.30040 | 14560 ft | 358 kts | 137° |
| 2026-05-07 02:02 | 34.66042 | -120.27884 | 15273 ft | 358 kts | 125° |
| 2026-05-07 02:03 | 34.64703 | -120.25346 | 15972 ft | 357 kts | 113° |
| 2026-05-07 02:03 | 34.63792 | -120.22546 | 16659 ft | 358 kts | 105° |
| 2026-05-07 02:03 | 34.62993 | -120.19671 | 17336 ft | 361 kts | 105° |
| 2026-05-07 02:03 | 34.62185 | -120.16771 | 18010 ft | 364 kts | 105° |
| 2026-05-07 02:04 | 34.61367 | -120.13853 | 18671 ft | 367 kts | 105° |
| 2026-05-07 02:04 | 34.60534 | -120.10902 | 19288 ft | 371 kts | 105° |
| 2026-05-07 02:04 | 34.59689 | -120.07922 | 19900 ft | 375 kts | 105° |
| 2026-05-07 02:04 | 34.58840 | -120.04911 | 20487 ft | 379 kts | 105° |
| 2026-05-07 02:05 | 34.57983 | -120.01868 | 21071 ft | 383 kts | 105° |
| 2026-05-07 02:05 | 34.57116 | -119.98789 | 21647 ft | 387 kts | 105° |
| 2026-05-07 02:05 | 34.56242 | -119.95692 | 22211 ft | 391 kts | 105° |
| 2026-05-07 02:05 | 34.55352 | -119.92548 | 22779 ft | 395 kts | 105° |
| 2026-05-07 02:06 | 34.54451 | -119.89389 | 23315 ft | 399 kts | 105° |
| 2026-05-07 02:06 | 34.53541 | -119.86195 | 23827 ft | 402 kts | 105° |
| 2026-05-07 02:06 | 34.52625 | -119.82973 | 24339 ft | 406 kts | 105° |
| 2026-05-07 02:06 | 34.51745 | -119.79720 | 24816 ft | 406 kts | 101° |
| 2026-05-07 02:07 | 34.51263 | -119.76361 | 25289 ft | 404 kts | 90° |
| 2026-05-07 02:07 | 34.51550 | -119.69587 | 26240 ft | 404 kts | 81° |
| 2026-05-07 02:07 | 34.51819 | -119.66189 | 26688 ft | 406 kts | 80° |
| 2026-05-07 02:08 | 34.52085 | -119.62772 | 27006 ft | 407 kts | 81° |
| 2026-05-07 02:08 | 34.52344 | -119.59374 | 27070 ft | 399 kts | 81° |
| 2026-05-07 02:08 | 34.52593 | -119.56060 | 27082 ft | 391 kts | 81° |
| 2026-05-07 02:08 | 34.52841 | -119.52791 | 27086 ft | 388 kts | 81° |
| 2026-05-07 02:09 | 34.53089 | -119.49530 | 27092 ft | 388 kts | 81° |
| 2026-05-07 02:09 | 34.53338 | -119.46282 | 27092 ft | 387 kts | 81° |
| 2026-05-07 02:09 | 34.53587 | -119.43032 | 27093 ft | 387 kts | 81° |
| 2026-05-07 02:09 | 34.53834 | -119.39783 | 27092 ft | 387 kts | 81° |
| 2026-05-07 02:10 | 34.54078 | -119.36531 | 27093 ft | 387 kts | 81° |
| 2026-05-07 02:10 | 34.54319 | -119.33283 | 27099 ft | 387 kts | 81° |
| 2026-05-07 02:10 | 34.54558 | -119.30032 | 27099 ft | 387 kts | 81° |
| 2026-05-07 02:10 | 34.54796 | -119.26781 | 27099 ft | 387 kts | 81° |
| 2026-05-07 02:11 | 34.55037 | -119.23528 | 27103 ft | 387 kts | 81° |
| 2026-05-07 02:11 | 34.55277 | -119.20278 | 27099 ft | 387 kts | 81° |
| 2026-05-07 02:11 | 34.55514 | -119.17036 | 27104 ft | 386 kts | 81° |
| 2026-05-07 02:11 | 34.55751 | -119.13792 | 27103 ft | 386 kts | 81° |
| 2026-05-07 02:12 | 34.55991 | -119.10546 | 27103 ft | 386 kts | 81° |
| 2026-05-07 02:12 | 34.56228 | -119.07308 | 27103 ft | 385 kts | 81° |
| 2026-05-07 02:12 | 34.56461 | -119.04071 | 27100 ft | 385 kts | 81° |
| 2026-05-07 02:12 | 34.56693 | -119.00835 | 27105 ft | 385 kts | 81° |
| 2026-05-07 02:13 | 34.56921 | -118.97639 | 27108 ft | 386 kts | 81° |
| 2026-05-07 02:13 | 34.57153 | -118.94399 | 27108 ft | 385 kts | 81° |
| 2026-05-07 02:13 | 34.57387 | -118.91167 | 27116 ft | 385 kts | 81° |
| 2026-05-07 02:13 | 34.57621 | -118.87933 | 27122 ft | 385 kts | 81° |
| 2026-05-07 02:14 | 34.57850 | -118.84700 | 27132 ft | 384 kts | 81° |
| 2026-05-07 02:14 | 34.58077 | -118.81475 | 27135 ft | 384 kts | 81° |
| 2026-05-07 02:14 | 34.58300 | -118.78252 | 27138 ft | 384 kts | 81° |
| 2026-05-07 02:14 | 34.58526 | -118.75027 | 27141 ft | 384 kts | 81° |
| 2026-05-07 02:15 | 34.58752 | -118.71801 | 27144 ft | 384 kts | 81° |
| 2026-05-07 02:15 | 34.58978 | -118.68574 | 27145 ft | 384 kts | 81° |
| 2026-05-07 02:15 | 34.59203 | -118.65343 | 27144 ft | 384 kts | 81° |
| 2026-05-07 02:15 | 34.59427 | -118.62112 | 27147 ft | 384 kts | 81° |
| 2026-05-07 02:16 | 34.59650 | -118.58885 | 27147 ft | 384 kts | 81° |
| 2026-05-07 02:16 | 34.59871 | -118.55657 | 27144 ft | 384 kts | 81° |
| 2026-05-07 02:16 | 34.60089 | -118.52434 | 27141 ft | 384 kts | 81° |
| 2026-05-07 02:16 | 34.60309 | -118.49203 | 27139 ft | 383 kts | 81° |
| 2026-05-07 02:17 | 34.60531 | -118.45981 | 27135 ft | 383 kts | 82° |
| 2026-05-07 02:17 | 34.60752 | -118.42757 | 27132 ft | 383 kts | 81° |
| 2026-05-07 02:17 | 34.60970 | -118.39539 | 27127 ft | 383 kts | 81° |
| 2026-05-07 02:17 | 34.61186 | -118.36319 | 27118 ft | 382 kts | 81° |
| 2026-05-07 02:18 | 34.61401 | -118.33103 | 27111 ft | 382 kts | 81° |
| 2026-05-07 02:18 | 34.61611 | -118.29895 | 27099 ft | 382 kts | 82° |
| 2026-05-07 02:18 | 34.61820 | -118.26672 | 27095 ft | 382 kts | 82° |
| 2026-05-07 02:18 | 34.62028 | -118.23455 | 27089 ft | 382 kts | 82° |
| 2026-05-07 02:19 | 34.62235 | -118.20244 | 27083 ft | 382 kts | 82° |
| 2026-05-07 02:19 | 34.62443 | -118.17024 | 27075 ft | 382 kts | 82° |
| 2026-05-07 02:19 | 34.62653 | -118.13813 | 27074 ft | 382 kts | 82° |
| 2026-05-07 02:19 | 34.62861 | -118.10605 | 27069 ft | 381 kts | 82° |
| 2026-05-07 02:20 | 34.63069 | -118.07393 | 27067 ft | 381 kts | 82° |
| 2026-05-07 02:20 | 34.63307 | -118.04186 | 27063 ft | 381 kts | 80° |
| 2026-05-07 02:20 | 34.63617 | -118.01072 | 27062 ft | 380 kts | 78° |
| 2026-05-07 02:20 | 34.63982 | -117.97898 | 27061 ft | 380 kts | 78° |
| 2026-05-07 02:21 | 34.64363 | -117.94725 | 27062 ft | 379 kts | 78° |
| 2026-05-07 02:21 | 34.64740 | -117.91555 | 27060 ft | 380 kts | 78° |
| 2026-05-07 02:21 | 34.65108 | -117.88379 | 27061 ft | 380 kts | 78° |
| 2026-05-07 02:21 | 34.65466 | -117.85202 | 27060 ft | 380 kts | 78° |
| 2026-05-07 02:22 | 34.65816 | -117.82026 | 27060 ft | 379 kts | 78° |
| 2026-05-07 02:22 | 34.66158 | -117.78856 | 27056 ft | 379 kts | 79° |
| 2026-05-07 02:22 | 34.66497 | -117.75676 | 27054 ft | 379 kts | 79° |
| 2026-05-07 02:22 | 34.66831 | -117.72543 | 27052 ft | 379 kts | 79° |
| 2026-05-07 02:23 | 34.67167 | -117.69369 | 27049 ft | 379 kts | 79° |
| 2026-05-07 02:23 | 34.67503 | -117.66192 | 27050 ft | 379 kts | 79° |
| 2026-05-07 02:23 | 34.67843 | -117.63013 | 27055 ft | 379 kts | 79° |
| 2026-05-07 02:23 | 34.68179 | -117.59836 | 27053 ft | 379 kts | 79° |
| 2026-05-07 02:24 | 34.68514 | -117.56660 | 27053 ft | 379 kts | 79° |
| 2026-05-07 02:24 | 34.68853 | -117.53488 | 27051 ft | 379 kts | 79° |
| 2026-05-07 02:24 | 34.69191 | -117.50312 | 27055 ft | 379 kts | 79° |
| 2026-05-07 02:24 | 34.69524 | -117.47143 | 27057 ft | 379 kts | 79° |
| 2026-05-07 02:25 | 34.69855 | -117.43970 | 27061 ft | 379 kts | 79° |
| 2026-05-07 02:25 | 34.70189 | -117.40795 | 27064 ft | 379 kts | 79° |
| 2026-05-07 02:25 | 34.70704 | -117.37679 | 27067 ft | 375 kts | 70° |
| 2026-05-07 02:25 | 34.71608 | -117.34721 | 27068 ft | 373 kts | 65° |
| 2026-05-07 02:26 | 34.72568 | -117.31796 | 27067 ft | 373 kts | 65° |
| 2026-05-07 02:26 | 34.73522 | -117.28863 | 27068 ft | 373 kts | 65° |
| 2026-05-07 02:26 | 34.74469 | -117.25926 | 27066 ft | 373 kts | 66° |
| 2026-05-07 02:26 | 34.75414 | -117.22984 | 27072 ft | 373 kts | 66° |
| 2026-05-07 02:27 | 34.76356 | -117.20050 | 27074 ft | 373 kts | 66° |
| 2026-05-07 02:27 | 34.77304 | -117.17105 | 27076 ft | 373 kts | 66° |
| 2026-05-07 02:27 | 34.78251 | -117.14167 | 27076 ft | 373 kts | 66° |
| 2026-05-07 02:27 | 34.79196 | -117.11227 | 27073 ft | 373 kts | 66° |
| 2026-05-07 02:28 | 34.80138 | -117.08289 | 27067 ft | 373 kts | 66° |
| 2026-05-07 02:28 | 34.81084 | -117.05352 | 27068 ft | 373 kts | 66° |
| 2026-05-07 02:28 | 34.82030 | -117.02414 | 27064 ft | 373 kts | 66° |
| 2026-05-07 02:28 | 34.82974 | -116.99477 | 27061 ft | 373 kts | 66° |
| 2026-05-07 02:29 | 34.83917 | -116.96539 | 27054 ft | 372 kts | 66° |
| 2026-05-07 02:29 | 34.84861 | -116.93604 | 27048 ft | 372 kts | 66° |
| 2026-05-07 02:29 | 34.85807 | -116.90666 | 27041 ft | 373 kts | 66° |
| 2026-05-07 02:29 | 34.86431 | -116.88721 | 27036 ft | 373 kts | 66° |
| 2026-05-07 02:30 | 34.87687 | -116.84793 | 27027 ft | 373 kts | 66° |
| 2026-05-07 02:30 | 34.88308 | -116.82845 | 27024 ft | 373 kts | 66° |
| 2026-05-07 02:30 | 34.89244 | -116.79900 | 27019 ft | 373 kts | 66° |
| 2026-05-07 02:30 | 34.90178 | -116.76960 | 27015 ft | 373 kts | 66° |
| 2026-05-07 02:31 | 34.91417 | -116.73053 | 27007 ft | 373 kts | 66° |
| 2026-05-07 02:31 | 34.92048 | -116.71062 | 27008 ft | 373 kts | 66° |
| 2026-05-07 02:31 | 34.92982 | -116.68118 | 27006 ft | 373 kts | 66° |
| 2026-05-07 02:31 | 34.93914 | -116.65177 | 27008 ft | 373 kts | 66° |
| 2026-05-07 02:32 | 34.94851 | -116.62225 | 27006 ft | 373 kts | 66° |
| 2026-05-07 02:32 | 34.95866 | -116.59328 | 27006 ft | 371 kts | 59° |
| 2026-05-07 02:32 | 34.97263 | -116.56702 | 27008 ft | 369 kts | 50° |
| 2026-05-07 02:32 | 34.98998 | -116.54407 | 27006 ft | 368 kts | 44° |
| 2026-05-07 02:33 | 35.00795 | -116.52183 | 27005 ft | 369 kts | 44° |
| 2026-05-07 02:33 | 35.02590 | -116.49950 | 27003 ft | 369 kts | 45° |
| 2026-05-07 02:33 | 35.04381 | -116.47712 | 27005 ft | 368 kts | 45° |
| 2026-05-07 02:33 | 35.06170 | -116.45473 | 27003 ft | 369 kts | 45° |
| 2026-05-07 02:34 | 35.07960 | -116.43229 | 27003 ft | 369 kts | 45° |
| 2026-05-07 02:34 | 35.09727 | -116.41018 | 27002 ft | 369 kts | 45° |
| 2026-05-07 02:34 | 35.11516 | -116.38772 | 27005 ft | 369 kts | 45° |
| 2026-05-07 02:34 | 35.13294 | -116.36502 | 27005 ft | 369 kts | 45° |
| 2026-05-07 02:35 | 35.15058 | -116.34219 | 27005 ft | 369 kts | 45° |
| 2026-05-07 02:35 | 35.16811 | -116.31935 | 27004 ft | 369 kts | 45° |
| 2026-05-07 02:35 | 35.18569 | -116.29642 | 26789 ft | 368 kts | 45° |
| 2026-05-07 02:35 | 35.20312 | -116.27370 | 26530 ft | 364 kts | 45° |
| 2026-05-07 02:36 | 35.22034 | -116.25133 | 26119 ft | 360 kts | 45° |
| 2026-05-07 02:36 | 35.23738 | -116.22903 | 25661 ft | 358 kts | 46° |
| 2026-05-07 02:36 | 35.25407 | -116.20650 | 25208 ft | 356 kts | 47° |
| 2026-05-07 02:36 | 35.27043 | -116.18399 | 24761 ft | 352 kts | 47° |
| 2026-05-07 02:37 | 35.28658 | -116.16160 | 24303 ft | 350 kts | 47° |
| 2026-05-07 02:37 | 35.30264 | -116.13933 | 23848 ft | 348 kts | 47° |
| 2026-05-07 02:37 | 35.31861 | -116.11723 | 23386 ft | 345 kts | 47° |
| 2026-05-07 02:37 | 35.33452 | -116.09532 | 22925 ft | 343 kts | 47° |
| 2026-05-07 02:38 | 35.35034 | -116.07360 | 22464 ft | 341 kts | 47° |
| 2026-05-07 02:38 | 35.36605 | -116.05203 | 22007 ft | 338 kts | 47° |
| 2026-05-07 02:38 | 35.38166 | -116.03053 | 21550 ft | 336 kts | 47° |
| 2026-05-07 02:38 | 35.39717 | -116.00918 | 21090 ft | 335 kts | 47° |
| 2026-05-07 02:39 | 35.41264 | -115.98794 | 20628 ft | 333 kts | 47° |
| 2026-05-07 02:39 | 35.42798 | -115.96682 | 20173 ft | 331 kts | 47° |
| 2026-05-07 02:39 | 35.44326 | -115.94574 | 19714 ft | 330 kts | 47° |
| 2026-05-07 02:39 | 35.45844 | -115.92478 | 19259 ft | 328 kts | 47° |
| 2026-05-07 02:40 | 35.47358 | -115.90388 | 18813 ft | 327 kts | 47° |
| 2026-05-07 02:40 | 35.48864 | -115.88309 | 18367 ft | 325 kts | 47° |
| 2026-05-07 02:40 | 35.50365 | -115.86235 | 17922 ft | 325 kts | 47° |
| 2026-05-07 02:40 | 35.51863 | -115.84168 | 17488 ft | 323 kts | 47° |
| 2026-05-07 02:41 | 35.53355 | -115.82112 | 17055 ft | 322 kts | 47° |
| 2026-05-07 02:41 | 35.54837 | -115.80062 | 16631 ft | 320 kts | 47° |
| 2026-05-07 02:41 | 35.56312 | -115.78018 | 16212 ft | 319 kts | 46° |
| 2026-05-07 02:41 | 35.57756 | -115.76008 | 16058 ft | 309 kts | 46° |
| 2026-05-07 02:42 | 35.59164 | -115.74048 | 15873 ft | 303 kts | 46° |
| 2026-05-07 02:42 | 35.60567 | -115.72125 | 15804 ft | 302 kts | 46° |
| 2026-05-07 02:42 | 35.61982 | -115.70219 | 15694 ft | 301 kts | 45° |
| 2026-05-07 02:42 | 35.63394 | -115.68325 | 15543 ft | 301 kts | 45° |
| 2026-05-07 02:43 | 35.64805 | -115.66432 | 15389 ft | 300 kts | 45° |
| 2026-05-07 02:43 | 35.66215 | -115.64540 | 15238 ft | 299 kts | 45° |
| 2026-05-07 02:43 | 35.67616 | -115.62652 | 15088 ft | 299 kts | 45° |
| 2026-05-07 02:43 | 35.69014 | -115.60761 | 14937 ft | 298 kts | 45° |
| 2026-05-07 02:44 | 35.70407 | -115.58875 | 14784 ft | 297 kts | 45° |
| 2026-05-07 02:44 | 35.71780 | -115.57019 | 14638 ft | 297 kts | 45° |
| 2026-05-07 02:44 | 35.73295 | -115.55320 | 14480 ft | 294 kts | 33° |
| 2026-05-07 02:44 | 35.75044 | -115.54030 | 14337 ft | 293 kts | 28° |
| 2026-05-07 02:45 | 35.76815 | -115.52793 | 14186 ft | 292 kts | 28° |
| 2026-05-07 02:45 | 35.78579 | -115.51555 | 14038 ft | 292 kts | 28° |
| 2026-05-07 02:45 | 35.80346 | -115.50315 | 13887 ft | 292 kts | 28° |
| 2026-05-07 02:45 | 35.82113 | -115.49076 | 13752 ft | 292 kts | 28° |
| 2026-05-07 02:46 | 35.83879 | -115.47842 | 13602 ft | 292 kts | 28° |
| 2026-05-07 02:46 | 35.85640 | -115.46609 | 13450 ft | 291 kts | 28° |
| 2026-05-07 02:46 | 35.87394 | -115.45378 | 13302 ft | 290 kts | 28° |
| 2026-05-07 02:46 | 35.89146 | -115.44148 | 13158 ft | 289 kts | 28° |
| 2026-05-07 02:47 | 35.90892 | -115.42920 | 13010 ft | 289 kts | 28° |
| 2026-05-07 02:47 | 35.92640 | -115.41695 | 12666 ft | 289 kts | 28° |
| 2026-05-07 02:47 | 35.94385 | -115.40475 | 12330 ft | 287 kts | 27° |
| 2026-05-07 02:47 | 35.96117 | -115.39265 | 12000 ft | 285 kts | 27° |
| 2026-05-07 02:48 | 35.97841 | -115.38060 | 11672 ft | 284 kts | 27° |
| 2026-05-07 02:48 | 35.99485 | -115.36709 | 11342 ft | 285 kts | 40° |
| 2026-05-07 02:48 | 36.00714 | -115.34779 | 11015 ft | 289 kts | 59° |
| 2026-05-07 02:48 | 36.01351 | -115.32409 | 10756 ft | 295 kts | 79° |
| 2026-05-07 02:49 | 36.01363 | -115.29867 | 10507 ft | 299 kts | 91° |
| 2026-05-07 02:49 | 36.01235 | -115.27305 | 10238 ft | 298 kts | 91° |
| 2026-05-07 02:49 | 36.01106 | -115.24751 | 9977 ft | 297 kts | 91° |
| 2026-05-07 02:49 | 36.00978 | -115.22209 | 9716 ft | 297 kts | 91° |
| 2026-05-07 02:50 | 36.00850 | -115.19673 | 9463 ft | 295 kts | 91° |
| 2026-05-07 02:50 | 36.00723 | -115.17197 | 9351 ft | 283 kts | 92° |
| 2026-05-07 02:50 | 36.00600 | -115.14818 | 9233 ft | 272 kts | 92° |
| 2026-05-07 02:50 | 36.00481 | -115.12537 | 9122 ft | 261 kts | 91° |
| 2026-05-07 02:51 | 36.00368 | -115.10339 | 9005 ft | 251 kts | 91° |
| 2026-05-07 02:51 | 36.00261 | -115.08208 | 8762 ft | 247 kts | 91° |
| 2026-05-07 02:51 | 36.00156 | -115.06116 | 8526 ft | 242 kts | 91° |
| 2026-05-07 02:51 | 36.00052 | -115.04067 | 8300 ft | 238 kts | 91° |
| 2026-05-07 02:52 | 35.99951 | -115.02039 | 8081 ft | 236 kts | 91° |
| 2026-05-07 02:52 | 35.99875 | -115.00014 | 7814 ft | 235 kts | 90° |
| 2026-05-07 02:52 | 35.99854 | -114.98001 | 7520 ft | 234 kts | 89° |
| 2026-05-07 02:52 | 35.99852 | -114.95995 | 7227 ft | 233 kts | 88° |
| 2026-05-07 02:53 | 35.99899 | -114.94002 | 6922 ft | 231 kts | 78° |
| 2026-05-07 02:53 | 36.00535 | -114.92227 | 6613 ft | 226 kts | 50° |
| 2026-05-07 02:53 | 36.01690 | -114.90951 | 6309 ft | 223 kts | 29° |
| 2026-05-07 02:53 | 36.03107 | -114.90251 | 6005 ft | 219 kts | 8° |
| 2026-05-07 02:54 | 36.04640 | -114.90306 | 5525 ft | 223 kts | 342° |
| 2026-05-07 02:54 | 36.05991 | -114.91161 | 5318 ft | 216 kts | 318° |
| 2026-05-07 02:54 | 36.06920 | -114.92559 | 5145 ft | 209 kts | 296° |
| 2026-05-07 02:54 | 36.07339 | -114.94247 | 4930 ft | 205 kts | 276° |
| 2026-05-07 02:55 | 36.07355 | -114.95985 | 4680 ft | 201 kts | 271° |
| 2026-05-07 02:55 | 36.07359 | -114.97703 | 4410 ft | 198 kts | 271° |
| 2026-05-07 02:55 | 36.07362 | -114.99383 | 4153 ft | 194 kts | 270° |
| 2026-05-07 02:55 | 36.07364 | -115.01037 | 3896 ft | 190 kts | 271° |
| 2026-05-07 02:56 | 36.07364 | -115.02621 | 3655 ft | 177 kts | 271° |
| 2026-05-07 02:56 | 36.07364 | -115.04028 | 3434 ft | 157 kts | 272° |
| 2026-05-07 02:56 | 36.07365 | -115.05331 | 3231 ft | 145 kts | 271° |
| 2026-05-07 02:56 | 36.07366 | -115.06554 | 3044 ft | 140 kts | 271° |
| 2026-05-07 02:57 | 36.07367 | -115.07746 | 2861 ft | 141 kts | 271° |
| 2026-05-07 02:57 | 36.07367 | -115.08966 | 2679 ft | 143 kts | 270° |
| 2026-05-07 02:57 | 36.07365 | -115.10196 | 2492 ft | 143 kts | 269° |
| 2026-05-07 02:57 | 36.07367 | -115.11417 | 2357 ft | 143 kts | 269° |
| 2026-05-07 02:58 | 36.07367 | -115.12631 | 2224 ft | 141 kts | 269° |
| 2026-05-07 02:58 | 36.07369 | -115.13775 | 2188 ft | 116 kts | 270° |
| 2026-05-07 02:58 | 36.07366 | -115.14526 | 2191 ft | 59 kts | 270° |
| 2026-05-07 02:58 | 36.07405 | -115.14906 | 2189 ft | 38 kts | 295° |
| 2026-05-07 02:59 | 36.07505 | -115.15099 | 2188 ft | 25 kts | 315° |
| 2026-05-07 02:59 | 36.07648 | -115.15201 | 2190 ft | 23 kts | 335° |
| 2026-05-07 02:59 | 36.07797 | -115.15288 | 2189 ft | 24 kts | 335° |
| 2026-05-07 02:59 | 36.07951 | -115.15377 | 2188 ft | 25 kts | 334° |
| 2026-05-07 03:00 | 36.08109 | -115.15468 | 2188 ft | 25 kts | 335° |
| 2026-05-07 03:00 | 36.08268 | -115.15562 | 2189 ft | 25 kts | 334° |
| 2026-05-07 03:00 | 36.08402 | -115.15636 | 2191 ft | 19 kts | 335° |
| 2026-05-07 03:00 | 36.08504 | -115.15648 | 2192 ft | 15 kts | 33° |
| 2026-05-07 03:01 | 36.08595 | -115.15582 | 2188 ft | 16 kts | 27° |
| 2026-05-07 03:01 | 36.08693 | -115.15518 | 2191 ft | 16 kts | 35° |
| 2026-05-07 03:01 | 36.08694 | -115.15420 | 2188 ft | 9 kts | 117° |
| 2026-05-07 03:01 | 36.08677 | -115.15377 | 2190 ft | 2 kts | 116° |
| 2026-05-07 03:02 | 36.08676 | -115.15374 | 2188 ft | 0 kts | 116° |